createdAt,value
2022-11-22T00:13:45.542Z,21.63
2022-11-22T00:31:47.862Z,20.95
2022-11-22T00:54:54.727Z,20.38
2022-11-22T01:02:46.713Z,16.02
2022-11-22T01:35:14.032Z,11.95
2022-11-22T01:37:43.878Z,11.35
2022-11-22T01:40:12.363Z,11.82
2022-11-22T01:42:51.047Z,10.85
2022-11-22T01:45:31.329Z,10.13
2022-11-22T01:48:10.581Z,10.15
2022-11-22T01:50:40.772Z,9.30
2022-11-22T01:53:22.706Z,10.00
2022-11-22T01:55:51.149Z,9.20
2022-11-22T01:58:20.832Z,8.93
2022-11-22T02:00:49.707Z,9.75
2022-11-22T02:03:19.441Z,6.97
2022-11-22T02:05:47.840Z,7.28
2022-11-22T02:08:39.358Z,9.07
2022-11-22T02:11:07.781Z,8.30
2022-11-22T02:13:41.026Z,8.20
2022-11-22T02:16:10.133Z,7.10
2022-11-22T02:18:38.847Z,7.13
2022-11-22T02:21:08.211Z,6.13
2022-11-22T02:23:46.552Z,6.78
2022-11-22T02:26:15.003Z,7.43
2022-11-22T02:28:43.791Z,7.70
2022-11-22T02:31:42.787Z,5.20
2022-11-22T02:34:12.303Z,5.85
2022-11-22T02:36:53.232Z,5.25
2022-11-22T02:39:27.810Z,6.82
2022-11-22T02:41:56.426Z,5.65
2022-11-22T02:44:25.136Z,4.90
2022-11-22T02:46:54.637Z,4.35
2022-11-22T02:49:25.037Z,4.43
2022-11-22T02:51:53.542Z,6.05
2022-11-22T02:54:22.522Z,6.95
2022-11-22T02:56:50.907Z,4.90
2022-11-22T02:59:19.670Z,5.03
2022-11-22T03:01:48.981Z,6.22
2022-11-22T03:04:25.273Z,6.00
2022-11-22T03:06:58.652Z,4.90
2022-11-22T03:09:27.819Z,5.20
2022-11-22T03:11:56.387Z,5.63
2022-11-22T03:14:25.172Z,3.58
2022-11-22T03:16:53.593Z,4.20
2022-11-22T03:19:22.425Z,4.32
2022-11-22T03:21:51.081Z,4.13
2022-11-22T03:24:21.211Z,8.73
2022-11-22T03:26:50.891Z,3.53
2022-11-22T03:29:20.186Z,5.25
2022-11-22T03:31:49.188Z,4.07
2022-11-22T03:34:17.990Z,2.67
2022-11-22T03:36:46.456Z,4.35
2022-11-22T03:39:16.282Z,4.28
2022-11-22T03:41:44.671Z,3.35
2022-11-22T03:44:13.354Z,3.35
2022-11-22T03:46:41.704Z,5.82
2022-11-22T03:49:12.267Z,4.43
2022-11-22T03:51:40.670Z,5.18
2022-11-22T03:54:09.304Z,4.78
2022-11-22T03:56:37.715Z,3.40
2022-11-22T03:59:06.368Z,3.42
2022-11-22T04:01:34.819Z,4.43
2022-11-22T04:04:04.719Z,3.20
2022-11-22T04:06:33.077Z,4.28
2022-11-22T04:09:01.820Z,4.00
2022-11-22T04:11:30.292Z,3.17
2022-11-22T04:14:17.475Z,3.00
2022-11-22T04:16:45.862Z,4.50
2022-11-22T04:19:14.492Z,2.85
2022-11-22T04:21:42.880Z,3.75
2022-11-22T04:24:30.726Z,4.50
2022-11-22T04:26:59.282Z,2.70
2022-11-22T04:29:28.316Z,3.83
2022-11-22T04:32:16.049Z,4.80
2022-11-22T04:34:45.806Z,4.35
2022-11-22T04:37:14.228Z,3.30
2022-11-22T04:39:42.991Z,5.50
2022-11-22T04:42:49.591Z,3.55
2022-11-22T04:45:18.333Z,4.75
2022-11-22T04:48:02.210Z,2.88
2022-11-22T04:50:50.099Z,4.07
2022-11-22T04:53:20.122Z,2.92
2022-11-22T04:55:48.956Z,2.92
2022-11-22T04:58:17.861Z,3.00
2022-11-22T05:00:46.726Z,2.10
2022-11-22T05:03:15.382Z,3.13
2022-11-22T05:05:44.906Z,2.05
2022-11-22T05:08:14.889Z,4.45
2022-11-22T05:10:58.547Z,4.53
2022-11-22T05:16:09.431Z,3.20
2022-11-22T05:18:38.627Z,5.03
2022-11-22T05:21:09.101Z,2.15
2022-11-22T05:23:55.832Z,1.70
2022-11-22T05:26:29.718Z,3.40
2022-11-22T05:28:58.588Z,2.35
2022-11-22T05:31:27.769Z,1.83
2022-11-22T05:33:57.308Z,1.98
2022-11-22T05:36:26.069Z,2.78
2022-11-22T05:38:54.881Z,2.40
2022-11-22T05:41:23.632Z,1.73
2022-11-22T05:43:54.803Z,1.98
2022-11-22T05:46:27.130Z,1.40
2022-11-22T05:48:56.515Z,3.03
2022-11-22T05:51:33.930Z,2.25
2022-11-22T05:54:03.591Z,1.63
2022-11-22T05:56:32.332Z,1.75
2022-11-22T05:59:00.690Z,4.88
2022-11-22T06:01:29.420Z,4.78
2022-11-22T06:03:57.748Z,3.08
2022-11-22T06:06:26.455Z,1.33
2022-11-22T06:08:54.969Z,1.60
2022-11-22T06:11:25.820Z,1.67
2022-11-22T06:13:57.150Z,1.98
2022-11-22T06:16:27.276Z,1.42
2022-11-22T06:18:56.022Z,2.08
2022-11-22T06:21:25.891Z,1.23
2022-11-22T06:23:54.794Z,1.25
2022-11-22T06:26:24.949Z,1.50
2022-11-22T06:28:54.154Z,2.25
2022-11-22T06:31:24.878Z,2.80
2022-11-22T06:33:59.405Z,4.32
2022-11-22T06:36:31.273Z,4.95
2022-11-22T06:38:59.820Z,3.95
2022-11-22T06:41:33.990Z,1.13
2022-11-22T06:44:08.714Z,1.38
2022-11-22T06:46:39.073Z,2.35
2022-11-22T06:49:07.468Z,2.83
2022-11-22T06:51:37.185Z,1.45
2022-11-22T06:54:05.731Z,0.90
2022-11-22T06:56:39.623Z,0.90
2022-11-22T06:59:08.287Z,1.67
2022-11-22T07:01:37.607Z,0.73
2022-11-22T07:04:06.166Z,2.55
2022-11-22T07:06:38.383Z,1.35
2022-11-22T07:09:09.434Z,3.88
2022-11-22T07:11:38.511Z,2.75
2022-11-22T07:14:09.162Z,3.33
2022-11-22T07:16:39.887Z,0.88
2022-11-22T07:19:08.375Z,1.52
2022-11-22T07:21:40.870Z,2.75
2022-11-22T07:24:09.451Z,0.87
2022-11-22T07:26:38.210Z,2.28
2022-11-22T07:29:07.147Z,1.50
2022-11-22T07:31:35.923Z,0.85
2022-11-22T07:34:04.386Z,0.98
2022-11-22T07:36:33.165Z,3.70
2022-11-22T07:39:03.702Z,2.13
2022-11-22T07:41:32.327Z,2.63
2022-11-22T07:44:01.351Z,1.15
2022-11-22T07:46:31.886Z,1.55
2022-11-22T07:49:01.655Z,4.68
2022-11-22T07:51:31.112Z,1.60
2022-11-22T07:53:59.605Z,1.88
2022-11-22T07:56:28.374Z,1.58
2022-11-22T07:58:56.635Z,1.27
2022-11-22T08:01:26.541Z,1.45
2022-11-22T08:03:54.947Z,2.08
2022-11-22T08:06:25.374Z,6.55
2022-11-22T08:08:58.613Z,2.38
2022-11-22T08:11:30.520Z,2.13
2022-11-22T08:13:59.082Z,5.63
2022-11-22T08:16:28.870Z,1.48
2022-11-22T08:18:57.401Z,1.77
2022-11-22T08:21:26.064Z,1.10
2022-11-22T08:23:58.624Z,1.23
2022-11-22T08:26:28.488Z,2.33
2022-11-22T08:28:56.934Z,1.80
2022-11-22T08:31:26.132Z,4.72
2022-11-22T08:33:54.788Z,3.50
2022-11-22T08:36:25.168Z,2.67
2022-11-22T08:38:53.454Z,2.67
2022-11-22T08:41:23.523Z,1.67
2022-11-22T08:43:53.046Z,2.15
2022-11-22T08:46:23.109Z,3.60
2022-11-22T08:48:53.870Z,5.63
2022-11-22T08:51:23.955Z,2.47
2022-11-22T08:53:52.407Z,0.70
2022-11-22T08:56:21.256Z,2.33
2022-11-22T08:58:49.659Z,0.95
2022-11-22T09:01:19.162Z,1.38
2022-11-22T09:03:47.794Z,2.40
2022-11-22T09:09:42.773Z,3.50
2022-11-22T09:11:57.191Z,6.53
2022-11-22T09:14:26.506Z,1.88
2022-11-22T09:16:55.321Z,1.42
2022-11-22T09:19:23.709Z,4.53
2022-11-22T09:21:52.542Z,2.42
2022-11-22T09:24:20.970Z,2.15
2022-11-22T09:26:49.619Z,1.23
2022-11-22T09:29:18.097Z,1.98
2022-11-22T09:31:48.071Z,2.60
2022-11-22T09:34:16.440Z,3.45
2022-11-22T09:36:45.405Z,3.47
2022-11-22T09:39:14.044Z,1.98
2022-11-22T09:42:00.962Z,3.30
2022-11-22T09:44:57.951Z,4.97
2022-11-22T09:48:37.721Z,3.47
2022-11-22T09:51:11.288Z,4.72
2022-11-22T09:53:51.120Z,2.47
2022-11-22T09:56:20.630Z,2.58
2022-11-22T09:59:06.062Z,4.20
2022-11-22T10:01:45.013Z,2.95
2022-11-22T10:05:26.468Z,1.20
2022-11-22T10:08:25.389Z,2.60
2022-11-22T10:10:54.919Z,6.25
2022-11-22T10:13:27.089Z,4.78
2022-11-22T10:16:01.209Z,2.50
2022-11-22T10:18:45.270Z,1.73
2022-11-22T10:21:14.977Z,4.85
2022-11-22T10:23:43.597Z,2.70
2022-11-22T10:26:34.643Z,4.90
2022-11-22T10:29:15.929Z,4.93
2022-11-22T10:31:44.477Z,3.70
2022-11-22T10:34:32.640Z,6.40
2022-11-22T10:37:30.742Z,5.60
2022-11-22T10:40:28.268Z,8.10
2022-11-22T10:43:33.421Z,10.40
2022-11-22T10:46:33.117Z,7.40
2022-11-22T10:49:16.179Z,9.07
2022-11-22T10:52:25.232Z,7.38
2022-11-22T10:55:09.064Z,8.68
2022-11-22T10:58:24.439Z,7.93
2022-11-22T11:01:10.709Z,6.47
2022-11-22T11:03:45.385Z,9.02
2022-11-22T11:06:57.070Z,7.35
2022-11-22T11:12:51.799Z,9.50
2022-11-22T11:15:23.788Z,12.90
2022-11-22T11:17:59.302Z,12.48
2022-11-22T11:20:32.030Z,11.75
2022-11-22T11:23:17.392Z,9.05
2022-11-22T11:25:47.965Z,7.60
2022-11-22T11:28:28.535Z,6.28
2022-11-22T11:31:23.052Z,14.75
2022-11-22T11:33:51.873Z,10.07
2022-11-22T11:36:24.179Z,9.77
2022-11-22T11:38:57.801Z,10.38
2022-11-22T11:41:38.692Z,10.15
2022-11-22T11:44:27.218Z,3.60
2022-11-22T11:46:56.193Z,7.85
2022-11-22T11:49:33.886Z,6.63
2022-11-22T11:52:17.385Z,7.40
2022-11-22T11:54:47.239Z,7.57
2022-11-22T11:57:30.145Z,5.40
2022-11-22T12:00:01.663Z,10.82
2022-11-22T12:02:41.714Z,8.45
2022-11-22T12:05:13.451Z,3.72
2022-11-22T12:07:45.197Z,6.93
2022-11-22T12:10:50.127Z,7.43
2022-11-22T12:14:12.317Z,5.80
2022-11-22T12:16:53.708Z,9.73
2022-11-22T12:19:40.111Z,2.88
2022-11-22T12:22:49.507Z,4.88
2022-11-22T12:25:32.966Z,6.75
2022-11-22T12:28:23.322Z,8.27
2022-11-22T12:31:09.333Z,5.53
2022-11-22T12:33:53.569Z,6.97
2022-11-22T12:39:24.769Z,6.63
2022-11-22T12:42:24.935Z,14.13
2022-11-22T12:45:05.788Z,11.55
2022-11-22T12:47:40.321Z,12.15
2022-11-22T12:48:32.972Z,7.60
2022-11-22T12:50:30.482Z,16.70
2022-11-22T12:53:16.537Z,15.88
2022-11-22T12:55:57.574Z,14.90
2022-11-22T12:58:37.722Z,16.35
2022-11-22T13:01:31.012Z,12.60
2022-11-22T13:04:33.440Z,16.95
2022-11-22T13:07:10.148Z,15.05
2022-11-22T13:09:44.264Z,18.85
2022-11-22T13:12:15.921Z,19.55
2022-11-22T13:14:55.413Z,13.77
2022-11-22T13:17:25.800Z,13.45
2022-11-22T13:20:04.503Z,16.50
2022-11-22T13:22:45.269Z,23.42
2022-11-22T13:25:34.960Z,14.77
2022-11-22T13:28:16.985Z,17.00
2022-11-22T13:31:15.167Z,12.68
2022-11-22T13:34:00.960Z,17.52
2022-11-22T13:36:32.642Z,13.77
2022-11-22T13:39:04.670Z,13.40
2022-11-22T13:42:08.522Z,10.93
2022-11-22T13:44:50.329Z,14.75
2022-11-22T13:47:43.660Z,14.80
2022-11-22T13:53:24.635Z,12.23
2022-11-22T13:55:53.385Z,13.80
2022-11-22T13:58:25.068Z,18.60
2022-11-22T14:00:56.083Z,14.75
2022-11-22T14:03:40.202Z,19.50
2022-11-22T14:06:29.536Z,11.88
2022-11-22T14:09:45.053Z,16.15
2022-11-22T14:12:37.614Z,12.50
2022-11-22T14:15:48.629Z,11.25
2022-11-22T14:18:47.881Z,9.18
2022-11-22T14:21:54.109Z,11.55
2022-11-22T14:24:40.658Z,10.00
2022-11-22T14:27:20.460Z,10.07
2022-11-22T14:30:00.762Z,12.18
2022-11-22T14:33:03.641Z,10.82
2022-11-22T14:35:39.119Z,10.98
2022-11-22T14:38:28.319Z,11.57
2022-11-22T14:41:28.095Z,9.93
2022-11-22T14:44:20.015Z,10.40
2022-11-22T14:47:12.971Z,8.07
2022-11-22T14:49:47.157Z,11.60
2022-11-22T14:52:23.484Z,9.15
2022-11-22T14:55:02.161Z,12.43
2022-11-22T14:57:34.200Z,12.95
2022-11-22T15:00:25.097Z,6.05
2022-11-22T15:03:21.211Z,6.82
2022-11-22T15:09:20.359Z,9.05
2022-11-22T15:09:40.683Z,11.13
2022-11-22T15:12:41.666Z,6.40
2022-11-22T15:57:36.158Z,4.55
2022-11-22T16:00:15.698Z,8.60
2022-11-22T16:02:55.435Z,5.57
2022-11-22T16:06:07.807Z,10.50
2022-11-22T16:08:29.380Z,6.45
2022-11-22T16:11:01.234Z,5.43
2022-11-22T16:13:35.333Z,7.03
2022-11-22T16:16:28.819Z,4.47
2022-11-22T16:19:24.153Z,8.30
2022-11-22T16:21:57.592Z,6.00
2022-11-22T16:24:33.131Z,8.80
2022-11-22T16:27:13.553Z,5.20
2022-11-22T16:29:43.034Z,6.75
2022-11-22T16:32:13.247Z,6.20
2022-11-22T16:34:43.539Z,10.40
2022-11-22T16:37:37.508Z,5.80
2022-11-22T16:40:09.168Z,4.65
2022-11-22T16:42:45.161Z,6.22
2022-11-22T16:45:19.369Z,5.65
2022-11-22T16:47:58.622Z,11.35
2022-11-22T16:50:37.339Z,6.70
2022-11-22T16:53:11.998Z,6.90
2022-11-22T16:55:43.439Z,7.00
2022-11-22T16:58:23.560Z,7.57
2022-11-22T17:00:54.366Z,5.60
2022-11-22T17:03:25.859Z,7.13
2022-11-22T17:05:54.721Z,8.38
2022-11-22T17:08:23.320Z,7.20
2022-11-22T17:10:52.968Z,7.40
2022-11-22T17:13:26.902Z,5.60
2022-11-22T17:15:57.000Z,7.55
2022-11-22T17:18:25.528Z,8.30
2022-11-22T17:20:54.264Z,6.90
2022-11-22T17:23:36.763Z,6.45
2022-11-22T17:26:05.898Z,8.07
2022-11-22T17:28:34.368Z,8.05
2022-11-22T17:31:03.250Z,10.23
2022-11-22T17:33:31.747Z,8.32
2022-11-22T17:36:01.199Z,6.45
2022-11-22T17:38:29.586Z,6.78
2022-11-22T17:41:01.579Z,10.43
2022-11-22T17:43:30.261Z,8.02
2022-11-22T17:46:00.942Z,5.63
2022-11-22T17:48:29.700Z,9.38
2022-11-22T17:50:58.663Z,5.65
2022-11-22T17:53:27.577Z,4.93
2022-11-22T17:56:12.678Z,5.60
2022-11-22T17:58:41.893Z,5.97
2022-11-22T18:01:22.562Z,8.30
2022-11-22T18:03:51.844Z,8.48
2022-11-22T18:06:23.463Z,7.72
2022-11-22T18:08:51.943Z,7.05
2022-11-22T18:11:20.695Z,5.28
2022-11-22T18:13:49.562Z,6.95
2022-11-22T18:16:18.709Z,6.47
2022-11-22T18:19:02.582Z,9.15
2022-11-22T18:21:35.480Z,8.85
2022-11-22T18:24:04.910Z,5.10
2022-11-22T18:26:41.526Z,10.50
2022-11-22T18:32:02.888Z,8.18
2022-11-22T18:34:32.026Z,7.13
2022-11-22T18:37:03.185Z,6.15
2022-11-22T18:39:36.245Z,5.15
2022-11-22T18:42:07.260Z,8.70
2022-11-22T18:44:35.838Z,6.07
2022-11-22T18:47:05.121Z,5.55
2022-11-22T18:49:33.951Z,6.85
2022-11-22T18:52:03.069Z,5.50
2022-11-22T18:54:31.899Z,10.50
2022-11-22T18:57:01.096Z,5.07
2022-11-22T18:59:29.845Z,5.75
2022-11-22T19:01:58.755Z,11.98
2022-11-22T19:04:27.375Z,6.22
2022-11-22T19:06:56.389Z,7.22
2022-11-22T19:09:24.910Z,4.45
2022-11-22T19:11:58.574Z,5.28
2022-11-22T19:14:30.645Z,8.27
2022-11-22T19:16:59.943Z,5.07
2022-11-22T19:19:32.341Z,6.07
2022-11-22T19:22:02.370Z,7.35
2022-11-22T19:24:31.038Z,5.38
2022-11-22T19:27:00.045Z,5.97
2022-11-22T19:29:28.807Z,6.80
2022-11-22T19:31:57.744Z,5.78
2022-11-22T19:34:26.454Z,4.90
2022-11-22T19:36:55.568Z,7.18
2022-11-22T19:39:24.741Z,11.35
2022-11-22T19:41:53.675Z,5.80
2022-11-22T19:44:22.534Z,9.77
2022-11-22T19:46:52.434Z,5.25
2022-11-22T19:49:20.890Z,4.82
2022-11-22T19:51:49.724Z,7.55
2022-11-22T19:54:18.530Z,6.80
2022-11-22T19:56:47.472Z,7.43
2022-11-22T19:59:17.385Z,5.40
2022-11-22T20:01:46.463Z,6.90
2022-11-22T20:04:15.542Z,6.65
2022-11-22T20:06:49.723Z,6.10
2022-11-22T20:09:18.959Z,6.45
2022-11-22T20:11:47.848Z,7.22
2022-11-22T20:14:16.575Z,7.30
2022-11-22T20:16:45.945Z,6.70
2022-11-22T20:19:15.854Z,4.65
2022-11-22T20:21:49.650Z,5.93
2022-11-22T20:24:18.211Z,4.55
2022-11-22T20:26:46.955Z,6.88
2022-11-22T20:29:16.514Z,6.20
2022-11-22T20:31:46.584Z,4.93
2022-11-22T20:34:16.206Z,3.85
2022-11-22T20:36:45.136Z,6.20
2022-11-22T20:39:13.665Z,4.22
2022-11-22T20:41:43.756Z,5.40
2022-11-22T20:44:13.992Z,8.15
2022-11-22T20:46:44.964Z,7.10
2022-11-22T20:49:13.585Z,6.25
2022-11-22T20:51:43.209Z,5.15
2022-11-22T20:54:12.452Z,6.25
2022-11-22T20:56:41.215Z,5.18
2022-11-22T20:59:10.190Z,4.75
2022-11-22T21:01:39.456Z,7.88
2022-11-22T21:04:08.040Z,5.55
2022-11-22T21:06:36.810Z,5.32
2022-11-22T21:09:05.367Z,4.82
2022-11-22T21:11:35.484Z,4.88
2022-11-22T21:14:04.069Z,6.10
2022-11-22T21:16:32.934Z,7.32
2022-11-22T21:19:05.356Z,5.22
2022-11-22T21:21:36.329Z,4.72
2022-11-22T21:24:06.665Z,5.32
2022-11-22T21:26:36.830Z,4.10
2022-11-22T21:29:15.935Z,6.15
2022-11-22T21:31:46.029Z,4.05
2022-11-22T21:34:15.225Z,7.47
2022-11-22T21:59:12.964Z,4.82
2022-11-22T22:00:29.101Z,6.25
2022-11-22T22:01:42.244Z,5.50
2022-11-22T22:04:10.728Z,5.60
2022-11-22T22:06:44.858Z,7.57
2022-11-22T22:09:14.801Z,6.32
2022-11-22T22:11:47.807Z,7.20
2022-11-22T22:14:16.990Z,5.65
2022-11-22T22:16:45.824Z,5.18
2022-11-22T22:19:15.468Z,4.70
2022-11-22T22:21:44.860Z,6.82
2022-11-22T22:24:13.620Z,9.02
2022-11-22T22:26:43.551Z,6.38
2022-11-22T22:29:12.202Z,6.70
2022-11-22T22:31:41.009Z,7.60
2022-11-22T22:34:09.591Z,5.00
2022-11-22T22:36:38.369Z,13.07
2022-11-22T22:39:06.819Z,10.13
2022-11-22T22:41:35.637Z,5.90
2022-11-22T22:44:04.188Z,4.50
2022-11-22T22:46:33.139Z,3.92
2022-11-22T22:49:01.854Z,4.35
2022-11-22T22:51:33.190Z,4.80
2022-11-22T22:54:02.403Z,6.93
2022-11-22T22:56:31.556Z,4.82
2022-11-22T22:59:01.336Z,5.05
2022-11-22T23:01:31.414Z,5.80
2022-11-22T23:04:01.708Z,5.93
2022-11-22T23:06:38.758Z,5.20
2022-11-22T23:12:10.928Z,6.82
2022-11-22T23:14:40.389Z,4.35
2022-11-22T23:17:10.354Z,5.10
2022-11-22T23:19:39.595Z,4.93
2022-11-22T23:22:08.481Z,5.00
2022-11-22T23:24:37.060Z,6.45
2022-11-22T23:27:05.955Z,5.90
